createdAt,value
2018-08-17T00:00:49.000Z,36
2018-08-17T00:02:49.000Z,35
2018-08-17T00:03:49.000Z,35
2018-08-17T00:05:49.000Z,35
2018-08-17T00:06:49.000Z,35
2018-08-17T00:07:49.000Z,35
2018-08-17T00:09:49.000Z,35
2018-08-17T00:10:49.000Z,35
2018-08-17T00:11:49.000Z,35
2018-08-17T00:12:49.000Z,35
2018-08-17T00:13:49.000Z,35
2018-08-17T00:14:49.000Z,35
2018-08-17T00:15:49.000Z,35
2018-08-17T00:16:49.000Z,35
2018-08-17T00:17:49.000Z,35
2018-08-17T00:18:49.000Z,35
2018-08-17T00:19:49.000Z,35
2018-08-17T00:20:49.000Z,35
2018-08-17T00:21:49.000Z,35
2018-08-17T00:22:49.000Z,35
2018-08-17T00:23:49.000Z,35
2018-08-17T00:24:49.000Z,35
2018-08-17T00:25:49.000Z,35
2018-08-17T00:26:49.000Z,35
2018-08-17T00:27:49.000Z,35
2018-08-17T00:28:49.000Z,35
2018-08-17T00:29:49.000Z,35
2018-08-17T00:30:49.000Z,35
2018-08-17T00:31:49.000Z,35
2018-08-17T00:33:49.000Z,35
2018-08-17T00:34:49.000Z,35
2018-08-17T00:35:49.000Z,35
2018-08-17T00:36:49.000Z,35
2018-08-17T00:38:49.000Z,35
2018-08-17T00:39:49.000Z,35
2018-08-17T00:40:49.000Z,35
2018-08-17T00:41:49.000Z,35
2018-08-17T00:42:49.000Z,35
2018-08-17T00:43:49.000Z,35
2018-08-17T00:44:49.000Z,35
2018-08-17T00:45:49.000Z,35
2018-08-17T00:47:49.000Z,35
2018-08-17T00:48:49.000Z,35
2018-08-17T00:49:49.000Z,35
2018-08-17T00:50:49.000Z,35
2018-08-17T00:51:49.000Z,35
2018-08-17T00:52:49.000Z,35
2018-08-17T00:53:49.000Z,35
2018-08-17T00:54:49.000Z,35
2018-08-17T00:55:49.000Z,35
2018-08-17T00:57:50.000Z,35
2018-08-17T00:58:50.000Z,35
2018-08-17T01:00:50.000Z,35
2018-08-17T01:01:50.000Z,35
2018-08-17T01:03:50.000Z,35
2018-08-17T01:04:50.000Z,35
2018-08-17T01:05:50.000Z,35
2018-08-17T01:06:50.000Z,35
2018-08-17T01:07:50.000Z,35
2018-08-17T01:08:50.000Z,35
2018-08-17T01:10:50.000Z,35
2018-08-17T01:11:50.000Z,35
2018-08-17T01:12:50.000Z,35
2018-08-17T01:13:50.000Z,35
2018-08-17T01:14:50.000Z,35
2018-08-17T01:15:50.000Z,35
2018-08-17T01:16:50.000Z,35
2018-08-17T01:17:50.000Z,35
2018-08-17T01:18:50.000Z,35
2018-08-17T01:19:50.000Z,35
2018-08-17T01:20:50.000Z,35
2018-08-17T01:21:50.000Z,35
2018-08-17T01:22:50.000Z,35
2018-08-17T01:23:50.000Z,35
2018-08-17T01:24:50.000Z,35
2018-08-17T01:25:50.000Z,35
2018-08-17T01:26:50.000Z,35
2018-08-17T01:27:50.000Z,35
2018-08-17T01:28:50.000Z,35
2018-08-17T01:29:50.000Z,35
2018-08-17T01:31:50.000Z,35
2018-08-17T01:32:50.000Z,35
2018-08-17T01:33:50.000Z,35
2018-08-17T01:34:50.000Z,35
2018-08-17T01:35:50.000Z,35
2018-08-17T01:36:50.000Z,35
2018-08-17T01:37:50.000Z,35
2018-08-17T01:39:50.000Z,35
2018-08-17T01:40:50.000Z,35
2018-08-17T01:42:50.000Z,35
2018-08-17T01:43:50.000Z,35
2018-08-17T01:45:50.000Z,35
2018-08-17T01:49:36.000Z,35
2018-08-17T01:50:36.000Z,35
2018-08-17T01:51:36.000Z,36
2018-08-17T01:55:22.000Z,36
2018-08-17T01:56:22.000Z,36
2018-08-17T01:57:22.000Z,36
2018-08-17T01:58:22.000Z,36
2018-08-17T01:59:22.000Z,36
2018-08-17T02:00:22.000Z,36
2018-08-17T02:01:21.000Z,36
2018-08-17T02:03:21.000Z,35
2018-08-17T02:04:21.000Z,36
2018-08-17T02:06:21.000Z,35
2018-08-17T02:07:21.000Z,35
2018-08-17T02:08:21.000Z,35
2018-08-17T02:09:21.000Z,35
2018-08-17T02:11:21.000Z,35
2018-08-17T02:12:21.000Z,35
2018-08-17T02:13:21.000Z,35
2018-08-17T02:14:21.000Z,35
2018-08-17T02:15:21.000Z,35
2018-08-17T02:16:21.000Z,35
2018-08-17T02:17:21.000Z,35
2018-08-17T02:18:21.000Z,35
2018-08-17T02:20:21.000Z,35
2018-08-17T02:21:21.000Z,35
2018-08-17T02:22:21.000Z,35
2018-08-17T02:23:21.000Z,35
2018-08-17T02:24:21.000Z,35
2018-08-17T02:25:21.000Z,35
2018-08-17T02:26:21.000Z,35
2018-08-17T02:27:21.000Z,35
2018-08-17T02:28:21.000Z,35
2018-08-17T02:29:21.000Z,35
2018-08-17T02:30:21.000Z,35
2018-08-17T02:31:21.000Z,35
2018-08-17T02:32:21.000Z,35
2018-08-17T02:33:21.000Z,35
2018-08-17T02:34:21.000Z,35
2018-08-17T02:36:21.000Z,35
2018-08-17T02:38:21.000Z,35
2018-08-17T02:39:21.000Z,35
2018-08-17T02:40:21.000Z,35
2018-08-17T02:41:21.000Z,35
2018-08-17T02:42:21.000Z,35
2018-08-17T02:43:21.000Z,35
2018-08-17T02:44:21.000Z,35
2018-08-17T02:45:21.000Z,35
2018-08-17T02:46:21.000Z,35
2018-08-17T02:47:21.000Z,35
2018-08-17T02:48:21.000Z,35
2018-08-17T02:49:21.000Z,35
2018-08-17T02:51:21.000Z,35
2018-08-17T02:52:21.000Z,35
2018-08-17T02:53:21.000Z,35
2018-08-17T02:54:21.000Z,35
2018-08-17T02:55:21.000Z,35
2018-08-17T02:56:21.000Z,35
2018-08-17T02:57:21.000Z,35
2018-08-17T02:58:21.000Z,35
2018-08-17T02:59:21.000Z,35
2018-08-17T03:00:21.000Z,35
2018-08-17T03:01:21.000Z,35
2018-08-17T03:02:21.000Z,35
2018-08-17T03:03:21.000Z,35
2018-08-17T03:04:21.000Z,35
2018-08-17T03:05:22.000Z,35
2018-08-17T03:07:22.000Z,35
2018-08-17T03:08:22.000Z,35
2018-08-17T03:09:22.000Z,35
2018-08-17T03:10:22.000Z,35
2018-08-17T03:11:22.000Z,35
2018-08-17T03:12:22.000Z,35
2018-08-17T03:13:22.000Z,35
2018-08-17T03:14:22.000Z,35
2018-08-17T03:15:22.000Z,35
2018-08-17T03:16:22.000Z,35
2018-08-17T03:17:22.000Z,35
2018-08-17T03:18:22.000Z,35
2018-08-17T03:19:22.000Z,35
2018-08-17T03:20:22.000Z,35
2018-08-17T03:21:22.000Z,35
2018-08-17T03:22:22.000Z,35
2018-08-17T03:23:22.000Z,35
2018-08-17T03:24:22.000Z,35
2018-08-17T03:25:22.000Z,35
2018-08-17T03:26:22.000Z,35
2018-08-17T03:27:22.000Z,35
2018-08-17T03:28:22.000Z,35
2018-08-17T03:29:22.000Z,35
2018-08-17T03:30:22.000Z,35
2018-08-17T03:31:22.000Z,35
2018-08-17T03:32:22.000Z,35
2018-08-17T03:33:22.000Z,35
2018-08-17T03:35:22.000Z,35
2018-08-17T03:36:22.000Z,35
2018-08-17T03:37:22.000Z,35
2018-08-17T03:39:22.000Z,35
2018-08-17T03:40:22.000Z,35
2018-08-17T03:41:22.000Z,35
2018-08-17T03:42:22.000Z,35
2018-08-17T03:43:22.000Z,35
2018-08-17T03:44:22.000Z,35
2018-08-17T03:48:08.000Z,35
2018-08-17T03:49:08.000Z,36
2018-08-17T03:51:08.000Z,36
2018-08-17T03:52:08.000Z,36
2018-08-17T03:53:08.000Z,36
2018-08-17T03:55:08.000Z,36
2018-08-17T03:56:08.000Z,36
2018-08-17T03:58:08.000Z,35
2018-08-17T03:59:08.000Z,36
2018-08-17T04:00:08.000Z,35
2018-08-17T04:01:08.000Z,36
2018-08-17T04:02:08.000Z,35
2018-08-17T04:04:08.000Z,35
2018-08-17T04:05:08.000Z,36
2018-08-17T04:06:08.000Z,36
2018-08-17T04:07:08.000Z,35
2018-08-17T04:08:08.000Z,36
2018-08-17T04:09:08.000Z,35
2018-08-17T04:11:08.000Z,35
2018-08-17T04:12:08.000Z,35
2018-08-17T04:14:08.000Z,35
2018-08-17T04:15:08.000Z,35
2018-08-17T04:17:08.000Z,35
2018-08-17T04:19:08.000Z,35
2018-08-17T04:20:08.000Z,35
2018-08-17T04:21:08.000Z,35
2018-08-17T04:22:08.000Z,36
2018-08-17T04:23:08.000Z,36
2018-08-17T04:24:08.000Z,35
2018-08-17T04:25:08.000Z,35
2018-08-17T04:26:08.000Z,35
2018-08-17T04:27:08.000Z,35
2018-08-17T04:28:08.000Z,35
2018-08-17T04:29:08.000Z,36
2018-08-17T04:31:08.000Z,36
2018-08-17T04:32:08.000Z,37
2018-08-17T04:33:08.000Z,37
2018-08-17T04:34:08.000Z,38
2018-08-17T04:36:08.000Z,38
2018-08-17T04:37:08.000Z,38
2018-08-17T04:38:08.000Z,39
2018-08-17T04:39:08.000Z,38
2018-08-17T04:40:08.000Z,39
2018-08-17T04:42:08.000Z,39
2018-08-17T04:43:08.000Z,39
2018-08-17T04:44:08.000Z,39
2018-08-17T04:45:08.000Z,40
2018-08-17T04:47:08.000Z,40
2018-08-17T04:48:08.000Z,40
2018-08-17T04:50:08.000Z,39
2018-08-17T04:51:08.000Z,40
2018-08-17T04:52:08.000Z,40
2018-08-17T04:53:08.000Z,40
2018-08-17T04:55:08.000Z,39
2018-08-17T04:56:08.000Z,39
2018-08-17T04:57:08.000Z,39
2018-08-17T04:58:08.000Z,39
2018-08-17T04:59:08.000Z,39
2018-08-17T05:00:08.000Z,39
2018-08-17T05:01:08.000Z,39
2018-08-17T05:02:08.000Z,39
2018-08-17T05:03:08.000Z,40
2018-08-17T05:04:08.000Z,40
2018-08-17T05:05:08.000Z,40
2018-08-17T05:06:08.000Z,39
2018-08-17T05:07:08.000Z,39
2018-08-17T05:09:08.000Z,39
2018-08-17T05:10:08.000Z,39
2018-08-17T05:11:08.000Z,39
2018-08-17T05:12:08.000Z,39
2018-08-17T05:13:08.000Z,39
2018-08-17T05:14:08.000Z,39
2018-08-17T05:15:08.000Z,38
2018-08-17T05:16:08.000Z,38
2018-08-17T05:17:08.000Z,38
2018-08-17T05:18:08.000Z,39
2018-08-17T05:19:08.000Z,38
2018-08-17T05:21:08.000Z,38
2018-08-17T05:22:08.000Z,39
2018-08-17T05:23:08.000Z,39
2018-08-17T05:24:08.000Z,38
2018-08-17T05:25:08.000Z,38
2018-08-17T05:26:08.000Z,39
2018-08-17T05:27:08.000Z,38
2018-08-17T05:28:08.000Z,38
2018-08-17T05:29:08.000Z,38
2018-08-17T05:30:08.000Z,38
2018-08-17T05:31:08.000Z,38
2018-08-17T05:33:08.000Z,38
2018-08-17T05:35:08.000Z,38
2018-08-17T05:36:08.000Z,38
2018-08-17T05:37:08.000Z,38
2018-08-17T05:38:08.000Z,39
2018-08-17T05:39:08.000Z,39
2018-08-17T05:40:08.000Z,39
2018-08-17T05:41:08.000Z,38
2018-08-17T05:42:08.000Z,38
2018-08-17T05:43:08.000Z,38
2018-08-17T05:44:08.000Z,38
2018-08-17T05:45:08.000Z,38
2018-08-17T05:46:08.000Z,38
2018-08-17T05:47:08.000Z,39
2018-08-17T05:48:08.000Z,38
2018-08-17T05:49:08.000Z,39
2018-08-17T05:50:08.000Z,38
2018-08-17T05:51:08.000Z,39
2018-08-17T05:52:08.000Z,39
2018-08-17T05:53:08.000Z,39
2018-08-17T05:54:08.000Z,39
2018-08-17T05:55:08.000Z,39
2018-08-17T05:56:08.000Z,39
2018-08-17T05:57:08.000Z,39
2018-08-17T05:58:08.000Z,39
2018-08-17T05:59:08.000Z,39
2018-08-17T06:00:08.000Z,40
2018-08-17T06:02:08.000Z,40
2018-08-17T06:03:08.000Z,40
2018-08-17T06:04:08.000Z,41
2018-08-17T06:05:08.000Z,41
2018-08-17T06:06:08.000Z,41
2018-08-17T06:07:08.000Z,41
2018-08-17T06:08:08.000Z,42
2018-08-17T06:09:08.000Z,42
2018-08-17T06:11:08.000Z,42
2018-08-17T06:12:08.000Z,42
2018-08-17T06:13:08.000Z,42
2018-08-17T06:14:08.000Z,43
2018-08-17T06:15:08.000Z,43
2018-08-17T06:16:07.000Z,43
2018-08-17T06:18:07.000Z,43
2018-08-17T06:19:07.000Z,43
2018-08-17T06:20:07.000Z,44
2018-08-17T06:21:07.000Z,44
2018-08-17T06:23:07.000Z,44
2018-08-17T06:24:07.000Z,44
2018-08-17T06:25:07.000Z,44
2018-08-17T06:26:07.000Z,44
2018-08-17T06:27:07.000Z,44
2018-08-17T06:28:07.000Z,44
2018-08-17T06:29:07.000Z,44
2018-08-17T06:30:07.000Z,44
2018-08-17T06:32:07.000Z,44
2018-08-17T06:33:07.000Z,44
2018-08-17T06:34:07.000Z,44
2018-08-17T06:35:07.000Z,44
2018-08-17T06:36:07.000Z,44
2018-08-17T06:37:07.000Z,45
2018-08-17T06:38:07.000Z,44
2018-08-17T06:39:07.000Z,44
2018-08-17T06:40:07.000Z,45
2018-08-17T06:41:07.000Z,44
2018-08-17T06:42:07.000Z,44
2018-08-17T06:43:07.000Z,44
2018-08-17T06:44:07.000Z,45
2018-08-17T06:45:07.000Z,45
2018-08-17T06:46:07.000Z,44
2018-08-17T06:47:07.000Z,45
2018-08-17T06:49:07.000Z,45
2018-08-17T06:51:07.000Z,45
2018-08-17T06:52:07.000Z,46
2018-08-17T06:54:07.000Z,46
2018-08-17T06:55:07.000Z,46
2018-08-17T06:56:07.000Z,46
2018-08-17T06:57:07.000Z,46
2018-08-17T06:59:07.000Z,45
2018-08-17T07:00:07.000Z,45
2018-08-17T07:01:07.000Z,45
2018-08-17T07:03:07.000Z,45
2018-08-17T07:04:07.000Z,45
2018-08-17T07:05:07.000Z,45
2018-08-17T07:06:07.000Z,45
2018-08-17T07:07:07.000Z,45
2018-08-17T07:08:07.000Z,45
2018-08-17T07:09:07.000Z,45
2018-08-17T07:10:07.000Z,45
2018-08-17T07:11:07.000Z,45
2018-08-17T07:12:07.000Z,45
2018-08-17T07:13:07.000Z,45
2018-08-17T07:15:07.000Z,45
2018-08-17T07:16:07.000Z,45
2018-08-17T07:17:07.000Z,45
2018-08-17T07:18:07.000Z,45
2018-08-17T07:19:07.000Z,45
2018-08-17T07:20:07.000Z,45
2018-08-17T07:22:07.000Z,45
2018-08-17T07:23:07.000Z,45
2018-08-17T07:25:07.000Z,45
2018-08-17T07:26:07.000Z,45
2018-08-17T07:28:07.000Z,45
2018-08-17T07:29:07.000Z,45
2018-08-17T07:30:07.000Z,45
2018-08-17T07:31:07.000Z,45
2018-08-17T07:32:07.000Z,45
2018-08-17T07:33:07.000Z,45
2018-08-17T07:35:07.000Z,45
2018-08-17T07:36:07.000Z,45
2018-08-17T07:37:07.000Z,45
2018-08-17T07:38:07.000Z,45
2018-08-17T07:39:07.000Z,45
2018-08-17T07:41:07.000Z,45
2018-08-17T07:42:07.000Z,45
2018-08-17T07:43:07.000Z,45
2018-08-17T07:44:07.000Z,45
2018-08-17T07:45:07.000Z,45
2018-08-17T07:46:07.000Z,45
2018-08-17T07:47:07.000Z,45
2018-08-17T07:48:07.000Z,45
2018-08-17T07:49:07.000Z,45
2018-08-17T07:50:07.000Z,45
2018-08-17T07:51:07.000Z,45
2018-08-17T07:52:07.000Z,45
2018-08-17T07:53:07.000Z,45
2018-08-17T07:54:07.000Z,45
2018-08-17T07:55:07.000Z,45
2018-08-17T07:56:07.000Z,45
2018-08-17T07:57:07.000Z,45
2018-08-17T07:59:07.000Z,45
2018-08-17T08:00:07.000Z,45
2018-08-17T08:01:07.000Z,45
2018-08-17T08:02:07.000Z,45
2018-08-17T08:03:07.000Z,45
2018-08-17T08:04:07.000Z,45
2018-08-17T08:05:07.000Z,45
2018-08-17T08:06:07.000Z,45
2018-08-17T08:07:07.000Z,45
2018-08-17T08:08:07.000Z,45
2018-08-17T08:09:07.000Z,44
2018-08-17T08:10:07.000Z,44
2018-08-17T08:11:07.000Z,44
2018-08-17T08:12:07.000Z,44
2018-08-17T08:13:07.000Z,44
2018-08-17T08:14:07.000Z,44
2018-08-17T08:15:07.000Z,44
2018-08-17T08:16:07.000Z,44
2018-08-17T08:17:07.000Z,44
2018-08-17T08:18:07.000Z,44
2018-08-17T08:19:07.000Z,44
2018-08-17T08:20:07.000Z,44
2018-08-17T08:21:07.000Z,44
2018-08-17T08:22:07.000Z,44
2018-08-17T08:23:08.000Z,44
2018-08-17T08:24:08.000Z,44
2018-08-17T08:26:08.000Z,44
2018-08-17T08:27:08.000Z,44
2018-08-17T08:29:08.000Z,44
2018-08-17T08:30:08.000Z,44
2018-08-17T08:31:08.000Z,44
2018-08-17T08:32:08.000Z,44
2018-08-17T08:33:08.000Z,44
2018-08-17T08:34:08.000Z,44
2018-08-17T08:35:08.000Z,44
2018-08-17T08:36:08.000Z,44
2018-08-17T08:37:08.000Z,44
2018-08-17T08:38:08.000Z,44
2018-08-17T08:39:08.000Z,44
2018-08-17T08:40:08.000Z,44
2018-08-17T08:41:08.000Z,44
2018-08-17T08:42:08.000Z,44
2018-08-17T08:43:08.000Z,44
2018-08-17T08:44:08.000Z,44
2018-08-17T08:45:08.000Z,43
2018-08-17T08:46:08.000Z,44
2018-08-17T08:47:08.000Z,43
2018-08-17T08:49:08.000Z,43
2018-08-17T08:51:08.000Z,43
2018-08-17T08:52:08.000Z,43
2018-08-17T08:53:08.000Z,43
2018-08-17T08:54:08.000Z,44
2018-08-17T08:55:08.000Z,44
2018-08-17T08:56:08.000Z,44
2018-08-17T08:58:08.000Z,43
2018-08-17T08:59:08.000Z,44
2018-08-17T09:00:08.000Z,44
2018-08-17T09:01:08.000Z,44
2018-08-17T09:02:08.000Z,44
2018-08-17T09:03:08.000Z,43
2018-08-17T09:04:08.000Z,44
2018-08-17T09:05:08.000Z,44
2018-08-17T09:06:08.000Z,43
2018-08-17T09:08:08.000Z,43
2018-08-17T09:09:08.000Z,43
2018-08-17T09:10:08.000Z,43
2018-08-17T09:11:08.000Z,43
2018-08-17T09:12:08.000Z,43
2018-08-17T09:13:08.000Z,43
2018-08-17T09:14:08.000Z,43
2018-08-17T09:16:08.000Z,42
2018-08-17T09:17:08.000Z,42
2018-08-17T09:18:08.000Z,42
2018-08-17T09:19:08.000Z,42
2018-08-17T09:21:08.000Z,42
2018-08-17T09:22:08.000Z,43
2018-08-17T09:23:08.000Z,43
2018-08-17T09:24:08.000Z,43
2018-08-17T09:25:08.000Z,44
2018-08-17T09:26:08.000Z,44
2018-08-17T09:28:07.000Z,44
2018-08-17T09:29:07.000Z,45
2018-08-17T09:30:07.000Z,45
2018-08-17T09:31:07.000Z,45
2018-08-17T09:32:07.000Z,45
2018-08-17T09:33:07.000Z,45
2018-08-17T09:34:07.000Z,46
2018-08-17T09:35:07.000Z,46
2018-08-17T09:36:07.000Z,46
2018-08-17T09:38:07.000Z,46
2018-08-17T09:39:07.000Z,46
2018-08-17T09:40:07.000Z,46
2018-08-17T09:41:07.000Z,47
2018-08-17T09:42:07.000Z,47
2018-08-17T09:43:07.000Z,47
2018-08-17T09:44:07.000Z,47
2018-08-17T09:45:07.000Z,47
2018-08-17T09:46:07.000Z,47
2018-08-17T09:47:07.000Z,47
2018-08-17T09:48:07.000Z,47
2018-08-17T09:49:07.000Z,47
2018-08-17T09:50:07.000Z,47
2018-08-17T09:51:07.000Z,47
2018-08-17T09:52:07.000Z,47
2018-08-17T09:53:07.000Z,47
2018-08-17T09:54:07.000Z,47
2018-08-17T09:55:07.000Z,47
2018-08-17T09:56:07.000Z,47
2018-08-17T09:57:07.000Z,47
2018-08-17T09:58:07.000Z,47
2018-08-17T09:59:07.000Z,47
2018-08-17T10:00:07.000Z,47
2018-08-17T10:02:07.000Z,47
2018-08-17T10:03:07.000Z,48
2018-08-17T10:04:07.000Z,48
2018-08-17T10:05:07.000Z,48
2018-08-17T10:07:07.000Z,48
2018-08-17T10:08:07.000Z,48
2018-08-17T10:09:07.000Z,48
2018-08-17T10:10:07.000Z,48
2018-08-17T10:11:07.000Z,48
2018-08-17T10:12:07.000Z,48
2018-08-17T10:13:07.000Z,48
2018-08-17T10:14:07.000Z,48
2018-08-17T10:15:07.000Z,48
2018-08-17T10:17:07.000Z,48
2018-08-17T10:18:07.000Z,48
2018-08-17T10:19:07.000Z,48
2018-08-17T10:20:07.000Z,48
2018-08-17T10:21:07.000Z,49
2018-08-17T10:22:07.000Z,49
2018-08-17T10:23:07.000Z,49
2018-08-17T10:24:07.000Z,48
2018-08-17T10:25:07.000Z,49
2018-08-17T10:27:07.000Z,48
2018-08-17T10:28:07.000Z,49
2018-08-17T10:29:07.000Z,48
2018-08-17T10:31:07.000Z,48
2018-08-17T10:33:07.000Z,49
2018-08-17T10:34:07.000Z,49
2018-08-17T10:35:07.000Z,49
2018-08-17T10:36:07.000Z,49
2018-08-17T10:37:07.000Z,49
2018-08-17T10:38:07.000Z,49
2018-08-17T10:39:07.000Z,49
2018-08-17T10:40:07.000Z,49
2018-08-17T10:41:07.000Z,49
2018-08-17T10:42:07.000Z,49
2018-08-17T10:43:07.000Z,49
2018-08-17T10:44:07.000Z,49
2018-08-17T10:45:07.000Z,49
2018-08-17T10:46:07.000Z,49
2018-08-17T10:48:07.000Z,48
2018-08-17T10:49:07.000Z,49
2018-08-17T10:50:07.000Z,48
2018-08-17T10:51:07.000Z,49
2018-08-17T10:52:07.000Z,49
2018-08-17T10:53:07.000Z,49
2018-08-17T10:54:07.000Z,49
2018-08-17T10:55:07.000Z,49
2018-08-17T10:56:07.000Z,49
2018-08-17T10:57:07.000Z,49
2018-08-17T10:58:07.000Z,49
2018-08-17T10:59:07.000Z,48
2018-08-17T11:01:07.000Z,48
2018-08-17T11:02:07.000Z,49
2018-08-17T11:03:07.000Z,49
2018-08-17T11:04:07.000Z,49
2018-08-17T11:05:07.000Z,49
2018-08-17T11:06:07.000Z,49
2018-08-17T11:07:07.000Z,49
2018-08-17T11:08:07.000Z,49
2018-08-17T11:09:07.000Z,49
2018-08-17T11:10:07.000Z,49
2018-08-17T11:12:07.000Z,48
2018-08-17T11:13:07.000Z,49
2018-08-17T11:15:07.000Z,48
2018-08-17T11:16:07.000Z,48
2018-08-17T11:17:07.000Z,48
2018-08-17T11:18:07.000Z,48
2018-08-17T11:19:07.000Z,48
2018-08-17T11:21:07.000Z,47
2018-08-17T11:22:07.000Z,48
2018-08-17T11:24:07.000Z,47
2018-08-17T11:25:07.000Z,48
2018-08-17T11:26:07.000Z,47
2018-08-17T11:27:07.000Z,48
2018-08-17T11:28:07.000Z,47
2018-08-17T11:29:07.000Z,48
2018-08-17T11:30:07.000Z,47
2018-08-17T11:31:07.000Z,48
2018-08-17T11:32:07.000Z,48
2018-08-17T11:33:07.000Z,47
2018-08-17T11:34:07.000Z,47
2018-08-17T11:36:07.000Z,47
2018-08-17T11:37:07.000Z,47
2018-08-17T11:38:07.000Z,47
2018-08-17T11:39:07.000Z,47
2018-08-17T11:40:07.000Z,47
2018-08-17T11:41:07.000Z,47
2018-08-17T11:42:07.000Z,47
2018-08-17T11:43:07.000Z,47
2018-08-17T11:44:07.000Z,47
2018-08-17T11:45:07.000Z,47
2018-08-17T11:47:07.000Z,47
2018-08-17T11:49:07.000Z,46
2018-08-17T11:50:07.000Z,47
2018-08-17T11:51:07.000Z,47
2018-08-17T11:52:07.000Z,47
2018-08-17T11:53:07.000Z,47
2018-08-17T11:54:07.000Z,47
2018-08-17T11:55:07.000Z,46
2018-08-17T11:56:07.000Z,47
2018-08-17T11:58:07.000Z,47
2018-08-17T12:00:07.000Z,46
2018-08-17T12:01:07.000Z,47
2018-08-17T12:02:07.000Z,47
2018-08-17T12:03:07.000Z,47
2018-08-17T12:04:07.000Z,47
2018-08-17T12:05:07.000Z,47
2018-08-17T12:06:07.000Z,47
2018-08-17T12:07:07.000Z,47
2018-08-17T12:08:07.000Z,47
2018-08-17T12:09:07.000Z,47
2018-08-17T12:10:07.000Z,47
2018-08-17T12:11:07.000Z,47
2018-08-17T12:13:07.000Z,47
2018-08-17T12:14:07.000Z,47
2018-08-17T12:16:07.000Z,47
2018-08-17T12:18:07.000Z,47
2018-08-17T12:19:07.000Z,47
2018-08-17T12:21:07.000Z,47
2018-08-17T12:22:07.000Z,47
2018-08-17T12:23:07.000Z,47
2018-08-17T12:25:07.000Z,47
2018-08-17T12:26:07.000Z,47
2018-08-17T12:27:07.000Z,48
2018-08-17T12:28:07.000Z,47
2018-08-17T12:30:07.000Z,47
2018-08-17T12:31:07.000Z,48
2018-08-17T12:32:07.000Z,48
2018-08-17T12:33:07.000Z,48
2018-08-17T12:35:07.000Z,47
2018-08-17T12:36:07.000Z,48
2018-08-17T12:37:07.000Z,48
2018-08-17T12:38:08.000Z,48
2018-08-17T12:39:08.000Z,48
2018-08-17T12:40:08.000Z,48
2018-08-17T12:41:08.000Z,48
2018-08-17T12:42:08.000Z,48
2018-08-17T12:43:08.000Z,48
2018-08-17T12:44:08.000Z,48
2018-08-17T12:45:08.000Z,48
2018-08-17T12:47:08.000Z,47
2018-08-17T12:48:08.000Z,47
2018-08-17T12:49:08.000Z,47
2018-08-17T12:50:08.000Z,47
2018-08-17T12:51:08.000Z,47
2018-08-17T12:52:08.000Z,47
2018-08-17T12:53:08.000Z,47
2018-08-17T12:54:08.000Z,47
2018-08-17T12:55:08.000Z,47
2018-08-17T12:56:08.000Z,47
2018-08-17T12:57:08.000Z,47
2018-08-17T12:58:08.000Z,47
2018-08-17T12:59:08.000Z,46
2018-08-17T13:00:08.000Z,46
2018-08-17T13:01:08.000Z,46
2018-08-17T13:03:08.000Z,45
2018-08-17T13:04:08.000Z,46
2018-08-17T13:05:08.000Z,45
2018-08-17T13:06:08.000Z,45
2018-08-17T13:07:08.000Z,45
2018-08-17T13:08:08.000Z,45
2018-08-17T13:09:08.000Z,44
2018-08-17T13:10:08.000Z,44
2018-08-17T13:11:08.000Z,44
2018-08-17T13:12:08.000Z,43
2018-08-17T13:14:08.000Z,42
2018-08-17T13:15:08.000Z,41
2018-08-17T13:16:08.000Z,41
2018-08-17T13:17:08.000Z,41
2018-08-17T13:19:08.000Z,37
2018-08-17T13:20:08.000Z,35
2018-08-17T13:21:08.000Z,33
2018-08-17T13:22:08.000Z,33
2018-08-17T13:23:08.000Z,33
2018-08-17T13:24:08.000Z,34
2018-08-17T13:26:08.000Z,34
2018-08-17T13:27:08.000Z,34
2018-08-17T13:28:08.000Z,34
2018-08-17T13:29:08.000Z,33
2018-08-17T13:30:08.000Z,33
2018-08-17T13:31:08.000Z,33
2018-08-17T13:32:08.000Z,32
2018-08-17T13:34:08.000Z,33
2018-08-17T13:35:08.000Z,34
2018-08-17T13:36:08.000Z,34
2018-08-17T13:37:08.000Z,35
2018-08-17T13:38:08.000Z,35
2018-08-17T13:40:08.000Z,36
2018-08-17T13:41:08.000Z,37
2018-08-17T13:42:08.000Z,37
2018-08-17T13:43:08.000Z,37
2018-08-17T13:44:08.000Z,38
2018-08-17T13:45:08.000Z,38
2018-08-17T13:46:08.000Z,38
2018-08-17T13:47:08.000Z,38
2018-08-17T13:48:08.000Z,39
2018-08-17T13:49:08.000Z,39
2018-08-17T13:50:08.000Z,39
2018-08-17T13:51:08.000Z,39
2018-08-17T13:52:08.000Z,40
2018-08-17T13:53:08.000Z,40
2018-08-17T13:54:08.000Z,40
2018-08-17T13:55:08.000Z,40
2018-08-17T13:56:08.000Z,40
2018-08-17T13:57:08.000Z,40
2018-08-17T13:58:08.000Z,40
2018-08-17T13:59:08.000Z,40
2018-08-17T14:00:08.000Z,40
2018-08-17T14:01:08.000Z,40
2018-08-17T14:02:08.000Z,40
2018-08-17T14:03:08.000Z,41
2018-08-17T14:04:08.000Z,41
2018-08-17T14:05:08.000Z,41
2018-08-17T14:07:08.000Z,41
2018-08-17T14:08:08.000Z,41
2018-08-17T14:09:08.000Z,41
2018-08-17T14:10:08.000Z,41
2018-08-17T14:11:08.000Z,41
2018-08-17T14:12:08.000Z,41
2018-08-17T14:13:08.000Z,41
2018-08-17T14:15:08.000Z,41
2018-08-17T14:16:08.000Z,41
2018-08-17T14:17:08.000Z,41
2018-08-17T14:18:08.000Z,41
2018-08-17T14:20:08.000Z,41
2018-08-17T14:21:08.000Z,41
2018-08-17T14:22:08.000Z,41
2018-08-17T14:23:08.000Z,41
2018-08-17T14:24:08.000Z,41
2018-08-17T14:25:08.000Z,41
2018-08-17T14:26:08.000Z,41
2018-08-17T14:27:08.000Z,41
2018-08-17T14:28:08.000Z,41
2018-08-17T14:29:08.000Z,41
2018-08-17T14:30:08.000Z,41
2018-08-17T14:32:08.000Z,41
2018-08-17T14:33:08.000Z,41
2018-08-17T14:34:08.000Z,41
2018-08-17T14:35:08.000Z,41
2018-08-17T14:37:08.000Z,41
2018-08-17T14:38:08.000Z,41
2018-08-17T14:39:08.000Z,41
2018-08-17T14:40:08.000Z,41
2018-08-17T14:41:08.000Z,41
2018-08-17T14:42:08.000Z,41
2018-08-17T14:43:08.000Z,41
2018-08-17T14:44:08.000Z,41
2018-08-17T14:45:08.000Z,41
2018-08-17T14:46:08.000Z,41
2018-08-17T14:47:08.000Z,41
2018-08-17T14:48:08.000Z,41
2018-08-17T14:49:08.000Z,41
2018-08-17T14:50:08.000Z,41
2018-08-17T14:51:08.000Z,41
2018-08-17T14:52:08.000Z,40
2018-08-17T14:53:08.000Z,40
2018-08-17T14:55:08.000Z,40
2018-08-17T14:56:08.000Z,40
2018-08-17T14:57:08.000Z,40
2018-08-17T14:58:08.000Z,40
2018-08-17T14:59:08.000Z,40
2018-08-17T15:00:08.000Z,40
2018-08-17T15:01:08.000Z,40
2018-08-17T15:02:08.000Z,40
2018-08-17T15:03:08.000Z,40
2018-08-17T15:04:08.000Z,40
2018-08-17T15:05:08.000Z,40
2018-08-17T15:06:08.000Z,40
2018-08-17T15:08:08.000Z,40
2018-08-17T15:09:08.000Z,40
2018-08-17T15:11:08.000Z,40
2018-08-17T15:12:08.000Z,40
2018-08-17T15:13:08.000Z,40
2018-08-17T15:14:08.000Z,40
2018-08-17T15:15:08.000Z,40
2018-08-17T15:16:08.000Z,40
2018-08-17T15:17:08.000Z,40
2018-08-17T15:18:08.000Z,40
2018-08-17T15:19:08.000Z,40
2018-08-17T15:20:08.000Z,40
2018-08-17T15:21:08.000Z,40
2018-08-17T15:22:08.000Z,40
2018-08-17T15:23:08.000Z,40
2018-08-17T15:24:08.000Z,40
2018-08-17T15:26:08.000Z,40
2018-08-17T15:27:08.000Z,40
2018-08-17T15:28:08.000Z,40
2018-08-17T15:29:08.000Z,40
2018-08-17T15:30:08.000Z,40
2018-08-17T15:31:08.000Z,40
2018-08-17T15:32:08.000Z,40
2018-08-17T15:33:08.000Z,40
2018-08-17T15:34:08.000Z,40
2018-08-17T15:36:08.000Z,40
2018-08-17T15:37:08.000Z,40
2018-08-17T15:39:08.000Z,40
2018-08-17T15:40:08.000Z,40
2018-08-17T15:41:08.000Z,40
2018-08-17T15:42:08.000Z,40
2018-08-17T15:43:08.000Z,40
2018-08-17T15:44:08.000Z,40
2018-08-17T15:45:08.000Z,40
2018-08-17T15:46:08.000Z,40
2018-08-17T15:47:08.000Z,40
2018-08-17T15:48:08.000Z,40
2018-08-17T15:49:08.000Z,40
2018-08-17T15:50:08.000Z,40
2018-08-17T15:51:08.000Z,40
2018-08-17T15:52:08.000Z,40
2018-08-17T15:53:08.000Z,40
2018-08-17T15:54:08.000Z,40
2018-08-17T15:55:08.000Z,40
2018-08-17T15:56:08.000Z,40
2018-08-17T15:57:08.000Z,40
2018-08-17T15:58:08.000Z,40
2018-08-17T15:59:08.000Z,40
2018-08-17T16:00:08.000Z,40
2018-08-17T16:01:08.000Z,40
2018-08-17T16:02:08.000Z,39
2018-08-17T16:03:08.000Z,40
2018-08-17T16:04:08.000Z,39
2018-08-17T16:05:08.000Z,40
2018-08-17T16:06:08.000Z,40
2018-08-17T16:08:08.000Z,39
2018-08-17T16:09:08.000Z,40
2018-08-17T16:10:08.000Z,40
2018-08-17T16:11:08.000Z,39
2018-08-17T16:12:08.000Z,40
2018-08-17T16:14:08.000Z,39
2018-08-17T16:15:08.000Z,39
2018-08-17T16:16:08.000Z,40
2018-08-17T16:18:08.000Z,39